Airfield :
LOGIN :

Register | Disclaimer

   EN    FR    IT 

 










Legend :    VFR   Marginal VFR   IFR   Intensive IFR   Very Intensive IFR
Visi :
Ceiling :
>= 8 km
>= 3000ft
5 to 8 km
1000 to 3000 ft
1500m to 5 km
500 to 1000 ft
800 to 1500m
200 to 500 ft
< 800m
< 200 ft
Symbols :   Thunderstorms  Fog  Heavy snow  Heavy precipitations  Wind > 20 kt
SIGMETs :     Misc.  Thunderstorms  Icing  Turbulence  Mountain Waves  Volcanic Ashes







- Airport Elevation : 353 ft
- IATA code : LIN


LIML - Milano Linate

CURRENT METAR :
  • 160820Z 05004KT 360V090 7000 BKN010 03/02 Q1007 NOSIG

EXPIRED METARs :
  • 160750Z 04005KT 6000 BKN010 03/02 Q1006 NOSIG
  • 160720Z 06004KT 030V120 5000 BR BKN008 02/01 Q1006 NOSIG
  • 160650Z 06005KT 020V080 5000 BR BKN008 02/01 Q1005 NOSIG
  • 160620Z 05006KT 7000 SCT010 SCT030 01/01 Q1005 NOSIG
  • 160550Z 11004KT 070V160 7000 NSC 00/M00 Q1004 NOSIG

TAF TAF LIML
Valid from the 16 at 06:00 until the 17 at 06:00 UTC


160500Z 1606/1706 05005KT 7000 NSC
No reported NOTAMs for that airfield.
2 SIGMETs reported for the Milano FIR (LIMM) :
 
Embedded thunderstorms
LIMM SIGMET 4 VALID 160840/161040 LIIP
LIMM MILANO FIR EMBD TS OBS WI N4337 E00800 - N4424 E00933 - N4407 E01037 - N4342 E01120 - N4332 E01008 - N4306 E00940 - N4337 E00800 TOP FL260 STNR NC=
Embedded thunderstorms
LIMM SIGMET 3 VALID 160640/160840 LIIP
LIMM MILANO FIR EMBD TS OBS WI N4345 E01111 - N4334 E01018 - N4413 E00927 - N4438 E01026 - N4338 E01240 - N4345 E01111 TOP FL210 STNR NC=



MET'MAP, your aeronautical weather chart ! - Copyright ORBIFLY December 2007 - Disclaimer

ORBIFLY MET'MAP TEAM :

Programming & Development : Alexandra Zaïnal
Concept & Development : Baudouin d'Aumeries
Co-Development & Prog : Marc-Olivier Méhu
Technical & hardware support : Manuel Goepfert

Contact : metmap@orbifly.com




SOURCES & CREDITS :

   NOAA